Chavenay-Villepreux Airfield

LFPX · Yvelines, Île-de-France, Frankrijk

METAR historie LFPX · Chavenay-Villepreux Airfield

Hieronder zie je METAR's van de afgelopen dagen. Kies een jaar om door oudere METAR's te bladeren, vanaf het jaar 2007.

29 mei 2024

Tijd Code Weer Temp. Zicht Plafond Wind METAR/SPECI
18:00
I
16 °C 4,7 km 700 ft 200° 200° 10 kt METAR LFPN 291600Z AUTO 20010KT 9999 4700 -RA OVC007/// ///TCU 16/15 Q1010 TEMPO 2000 RADZ OVC001
18:00
I
16 °C 4,7 km 700 ft 200° 200° 10 kt METAR LFPN 291600Z AUTO 20010KT 9999 4700 -RA OVC007/// //////TCU 16/15 Q1010 TEMPO 2000 RADZ OVC001
17:30
I
16 °C 10 km+ 700 ft 210° 210° 10 kt METAR LFPN 291530Z AUTO 21010KT 9999 RA OVC007/// //////TCU 16/16 Q1010 TEMPO 2000 RADZ OVC001
17:00
I
16 °C 2,4 km 500 ft 210° 210° 10 kt METAR LFPN 291500Z AUTO 21010KT 2400 -RA BR OVC005/// //////TCU 16/16 Q1011 TEMPO 4000 -RADZ OVC001
16:30
I
16 °C 4,4 km 600 ft 210° 210° 11 kt METAR LFPN 291430Z AUTO 21011KT 4400 -RA BR BKN006 OVC014 16/15 Q1011 TEMPO 2000 RADZ OVC001
16:00
I
16 °C 6 km 800 ft 210° 210° 11 kt METAR LFPN 291400Z AUTO 21011KT 6000 BKN008 BKN016 OVC023 16/16 Q1011 TEMPO 4000 -RADZ
15:30
I
16 °C 5 km 600 ft 220° 220° 11 kt METAR LFPN 291330Z AUTO 22011KT 5000 -RA BR OVC006 16/16 Q1012 NOSIG
15:00
I
16 °C 3,2 km 700 ft 220° 220° 10 kt METAR LFPN 291300Z AUTO 22010KT 3200 RA BR BKN007/// BKN023/// OVC032/// ///TCU 16/16 Q1012 TEMPO NSW BKN005
14:30
I
16 °C 9 km 700 ft 220° 220° 8 kt METAR LFPN 291230Z AUTO 22008KT 180V240 9000 -RA BKN007 OVC013 16/15 Q1012 TEMPO 4000 -RADZ
14:00
I
16 °C 7 km 700 ft 220° 220° 8 kt METAR LFPN 291200Z AUTO 22008KT 7000 -RA BKN007/// BKN011/// OVC033/// ///TCU 16/15 Q1013 TEMPO 4000 -RADZ BKN005
13:30
I
16 °C 10 km+ 800 ft 210° 210° 10 kt METAR LFPN 291130Z AUTO 21010KT 9999 -RA BKN008/// OVC039/// ///CB 16/15 Q1013 TEMPO 3000 -RADZ BKN003
13:00
I
15 °C 4 km 800 ft 220° 220° 9 kt METAR LFPN 291100Z AUTO 22009KT 4000 RA BR BKN008/// BKN022/// BKN028/// ///CB 15/14 Q1013 TEMPO NSW BKN003
12:30
I
16 °C 8 km 800 ft 220° 220° 10 kt METAR LFPN 291030Z AUTO 22010KT 8000 -RA BKN008/// OVC013/// //////CB 16/15 Q1014 TEMPO 3000 -RADZ BKN003
12:00
I
16 °C 10 km+ 900 ft 230° 230° 10 kt METAR LFPN 291000Z AUTO 23010KT 200V260 9999 BKN009/// OVC014/// //////CB 16/15 Q1014 TEMPO 3000 -RADZ BKN003
11:30
I
16 °C 10 km+ 800 ft 220° 220° 10 kt METAR LFPN 290930Z AUTO 22010KT 9999 OVC008 16/14 Q1014 TEMPO 3000 -RADZ BKN003
11:00
I
16 °C 10 km+ 700 ft 230° 230° 10 kt METAR LFPN 290900Z AUTO 23010KT 9999 OVC007/// //////TCU 16/15 Q1014 TEMPO 3000 -RADZ BKN003
10:30
I
15 °C 10 km+ 700 ft 220° 220° 10 kt METAR LFPN 290830Z AUTO 22010KT 9999 OVC007 15/14 Q1014 TEMPO 2000 -RADZ BKN003
10:00
I
14 °C 10 km+ 700 ft 210° 210° 9 kt METAR LFPN 290800Z AUTO 21009KT 9999 OVC007 14/14 Q1014 TEMPO 2000 -RADZ BKN003
09:30
I
14 °C 4,3 km 500 ft 210° 210° 8 kt METAR LFPN 290730Z AUTO 21008KT 4300 -RA BR OVC005 14/14 Q1014 TEMPO 2000 -RADZ
09:00
I
14 °C 2,4 km 500 ft 220° 220° 6 kt METAR LFPN 290700Z AUTO 22006KT 180V240 2400 -RA BR OVC005/// //////TCU 14/14 Q1014 TEMPO BKN003
08:30
I
14 °C 2,6 km 500 ft 220° 220° 6 kt METAR LFPN 290630Z AUTO 22006KT 2600 -RA BR OVC005 14/14 Q1014 TEMPO 3000 -RADZ
08:00
I
14 °C 6 km 600 ft 220° 220° 7 kt METAR LFPN 290600Z AUTO 22007KT 6000 -RA OVC006/// //////TCU 14/13 Q1014 TEMPO 3000 -RADZ BKN003
07:30
I
13 °C 6 km 500 ft 220° 220° 7 kt METAR LFPN 290530Z AUTO 22007KT 6000 -RA OVC005/// //////TCU 13/13 Q1014
07:00
I
13 °C 5 km 500 ft 220° 220° 6 kt METAR LFPN 290500Z AUTO 22006KT 5000 -RA BR BKN005/// BKN039/// OVC054/// //////CB 13/13 Q1014
06:30
M
13 °C 7 km 8.800 ft 220° 220° 8 kt METAR LFPN 290430Z AUTO 22008KT 7000 RA SCT008/// SCT020/// OVC088/// //////TCU 13/13 Q1014
06:00
M
13 °C 5 km 1.100 ft 210° 210° 6 kt METAR LFPN 290400Z AUTO 21006KT 5000 RA BR OVC011/// //////CB 13/13 Q1014
05:30
M
13 °C 10 km+ 1.100 ft 230° 230° 6 kt METAR LFPN 290330Z AUTO 23006KT 9999 OVC011/// //////CB 13/13 Q1015
05:00
M
14 °C 9 km 1.300 ft 220° 220° 5 kt METAR LFPN 290300Z AUTO 22005KT 9000 RA OVC013/// ///CB 14/13 Q1014
04:30
M
14 °C 10 km+ 1.300 ft 230° 230° 6 kt METAR LFPN 290230Z AUTO 23006KT 200V260 9999 OVC013/// //////TCU 14/12 Q1015
04:00
M
14 °C 10 km+ 1.700 ft 240° 240° 8 kt METAR LFPN 290200Z AUTO 24008KT 9999 OVC017 14/12 Q1015
03:30
M
14 °C 10 km+ 2.000 ft 240° 240° 8 kt METAR LFPN 290130Z AUTO 24008KT 9999 OVC020 14/12 Q1015
03:00
M
14 °C 10 km+ 2.500 ft 240° 240° 9 kt METAR LFPN 290100Z AUTO 24009KT 220V280 9999 FEW017 BKN025 OVC032 14/12 Q1015
02:30
V
14 °C 10 km+ 3.200 ft 240° 240° 8 kt METAR LFPN 290030Z AUTO 24008KT 210V270 9999 SCT016 OVC032 14/12 Q1015
02:00
V
14 °C 10 km+ 3.900 ft 240° 240° 8 kt METAR LFPN 290000Z AUTO 24008KT 9999 SCT018 BKN039 OVC056 14/13 Q1016
01:30
V
14 °C 10 km+ 4.900 ft 240° 240° 9 kt METAR LFPN 282330Z AUTO 24009KT 9999 FEW017 SCT043 BKN049 14/13 Q1016
01:00
V
14 °C 10 km+ 4.800 ft 230° 230° 7 kt METAR LFPN 282300Z AUTO 23007KT 210V270 9999 FEW035 BKN048 BKN080 14/13 Q1016
00:30
V
15 °C 10 km+ 7.800 ft 230° 230° 10 kt METAR LFPN 282230Z AUTO 23010KT 9999 -RA SCT026 SCT064 BKN078 15/13 Q1016
00:00
M
15 °C 10 km+ 3.000 ft 230° 230° 6 kt METAR LFPN 282200Z AUTO 23006KT 200V270 9999 -RA BKN030 BKN039 BKN100 15/13 Q1016

28 mei 2024

Tijd Code Weer Temp. Zicht Plafond Wind METAR/SPECI
23:30
V
14 °C 10 km+ 9.600 ft 220° 220° 5 kt METAR LFPN 282130Z AUTO 22005KT 9999 FEW043 BKN096 BKN140 14/13 Q1016
23:00
V
15 °C 10 km+ 4.400 ft 190° 190° 5 kt METAR LFPN 282100Z AUTO 19005KT 9999 FEW034 BKN044 OVC140 15/13 Q1017
22:30
V
15 °C 10 km+ 3.400 ft 200° 200° 6 kt METAR LFPN 282030Z AUTO 20006KT 9999 BKN034 OVC046 15/13 Q1017 BECMG BKN012
22:00
V
15 °C 10 km+ 4.700 ft 210° 210° 7 kt METAR LFPN 282000Z AUTO 21007KT 9999 BKN047 BKN150 15/13 Q1017 BECMG BKN012
21:30
V
15 °C 10 km+ - 210° 210° 9 kt METAR LFPN 281930Z AUTO 21009KT CAVOK 15/13 Q1017 BECMG BKN012
21:00
V
15 °C 10 km+ - 220° 220° 9 kt METAR LFPN 281900Z AUTO 22009KT CAVOK 15/14 Q1017 BECMG BKN012
20:30
V
16 °C 10 km+ - 220° 220° 8 kt METAR LFPN 281830Z AUTO 22008KT 9999 FEW025 16/14 Q1017 BECMG BKN012
20:00
V
16 °C 10 km+ 5.800 ft 220° 220° 10 kt METAR LFPN 281800Z AUTO 22010KT 9999 FEW020 BKN058 16/14 Q1017 BECMG BKN012
19:30
M
17 °C 10 km+ 1.600 ft 220° 220° 12 kt METAR LFPN 281730Z AUTO 22012KT 9999 BKN016 BKN038 17/14 Q1017 BECMG BKN012
19:00
M
17 °C 10 km+ 1.500 ft 220° 220° 9 kt METAR LFPN 281700Z AUTO 22009KT 9999 FEW009 BKN015 BKN033 17/15 Q1017 NOSIG
18:30
M
16 °C 10 km+ 1.300 ft 230° 230° 9 kt METAR LFPN 281630Z AUTO 23009KT 9999 SCT008 BKN013 BKN037 16/15 Q1018 BECMG BKN020
18:00
M
16 °C 7 km 1.200 ft 230° 230° 10 kt METAR LFPN 281600Z AUTO 23010KT 7000 DZ BKN012 OVC022 16/15 Q1018 TEMPO 4000 -RA BECMG BKN020
17:30
M
16 °C 10 km+ 1.300 ft 220° 220° 10 kt METAR LFPN 281530Z AUTO 22010KT 9999 BKN013 BKN024 OVC032 16/15 Q1018 TEMPO 4000 -RA BECMG BKN020
17:00
I
16 °C 10 km+ 900 ft 220° 220° 9 kt METAR LFPN 281500Z AUTO 22009KT 9999 BKN009 OVC013 16/15 Q1018 TEMPO 4000 -RA BECMG BKN013
16:30
I
16 °C 10 km+ 900 ft 220° 220° 9 kt METAR LFPN 281430Z AUTO 22009KT 9999 BKN009 OVC014 16/15 Q1018 BECMG BKN020
16:00
I
16 °C 10 km+ 900 ft 220° 220° 11 kt METAR LFPN 281400Z AUTO 22011KT 9999 OVC009 16/14 Q1018 BECMG BKN020
15:30
M
16 °C 10 km+ 1.000 ft 220° 220° 10 kt METAR LFPN 281330Z AUTO 22010KT 9999 BKN010 OVC014 16/15 Q1018 BECMG BKN020
15:00
I
15 °C 10 km+ 900 ft 230° 230° 9 kt METAR LFPN 281300Z AUTO 23009KT 9999 OVC009 15/14 Q1018 TEMPO 4000 -RADZ BECMG BKN020
14:30
I
15 °C 5 km 800 ft 220° 220° 10 kt METAR LFPN 281230Z AUTO 22010KT 5000 -RADZ BR OVC008 15/14 Q1019 BECMG BKN020
14:00
I
15 °C 10 km+ 700 ft 220° 220° 12 kt METAR LFPN 281200Z AUTO 22012KT 200V260 9999 OVC007 15/14 Q1019 TEMPO 4000 -RADZ BECMG BKN013
13:30
I
14 °C 10 km+ 700 ft 220° 220° 10 kt METAR LFPN 281130Z AUTO 22010KT 9999 OVC007 14/14 Q1019 TEMPO 4000 -RADZ
13:00
I
14 °C 10 km+ 600 ft 210° 210° 11 kt METAR LFPN 281100Z AUTO 21011KT 9999 -DZ OVC006 14/14 Q1019 TEMPO 4000 -RADZ
12:30
I
14 °C 3,2 km 500 ft 210° 210° 10 kt METAR LFPN 281030Z AUTO 21010KT 3200 -DZ BR OVC005 14/14 Q1019 NOSIG
12:00
I
14 °C 10 km+ 700 ft 210° 210° 12 kt METAR LFPN 281000Z AUTO 21012KT 9999 -DZ OVC007 14/13 Q1019 TEMPO 4000 -RADZ
11:30
I
14 °C 4,1 km 600 ft 200° 200° 10 kt METAR LFPN 280930Z AUTO 20010KT 4100 DZ BR BKN006 OVC013 14/13 Q1019 TEMPO NSW
11:00
I
14 °C 3,9 km 700 ft 200° 200° 11 kt METAR LFPN 280900Z AUTO 20011KT 170V240 3900 -RA BR OVC007 14/13 Q1019 NOSIG
10:30
I
14 °C 5 km 800 ft 210° 210° 11 kt METAR LFPN 280830Z AUTO 21011KT 5000 -RA BR OVC008 14/13 Q1019 NOSIG
10:00
I
14 °C 10 km+ 900 ft 200° 200° 13 kt METAR LFPN 280800Z AUTO 20013KT 9999 -RADZ BKN009 OVC013 14/12 Q1019 TEMPO 4000 -RA
09:30
M
14 °C 10 km+ 1.100 ft 210° 210° 11 kt METAR LFPN 280730Z AUTO 21011KT 9999 BKN011 OVC052 14/12 Q1019 TEMPO 4000 -RA BKN009
09:00
V
13 °C 10 km+ 4.000 ft 210° 210° 10 kt METAR LFPN 280700Z AUTO 21010KT 9999 SCT011 BKN040 BKN054 13/11 Q1019 TEMPO 4000 -RA BKN009
08:30
V
13 °C 10 km+ 5.600 ft 210° 210° 10 kt METAR LFPN 280630Z AUTO 21010KT 9999 FEW042 BKN056 OVC076 13/11 Q1019 TEMPO 4000 -RA BKN009
08:00
V
12 °C 10 km+ - 230° 230° 7 kt METAR LFPN 280600Z AUTO 23007KT CAVOK 12/10 Q1019 TEMPO 4000 -RA BKN009
07:30
V
12 °C 10 km+ - 210° 210° 9 kt METAR LFPN 280530Z AUTO 21009KT CAVOK 12/10 Q1019 TEMPO 4000 -RA BKN009
07:00
V
11 °C 10 km+ - 220° 220° 6 kt METAR LFPN 280500Z AUTO 22006KT CAVOK 11/10 Q1019
06:30
V
10 °C 10 km+ - 210° 210° 5 kt METAR LFPN 280430Z AUTO 21005KT CAVOK 10/10 Q1019
06:00
V
10 °C 10 km+ - 220° 220° 5 kt METAR LFPN 280400Z AUTO 22005KT CAVOK 10/09 Q1019
05:30
V
10 °C 10 km+ - 220° 220° 6 kt METAR LFPN 280330Z AUTO 22006KT CAVOK 10/09 Q1019
05:00
V
10 °C 10 km+ - 220° 220° 5 kt METAR LFPN 280300Z AUTO 22005KT CAVOK 10/09 Q1019
04:30
V
9 °C 10 km+ - 220° 220° 5 kt METAR LFPN 280230Z AUTO 22005KT CAVOK 09/09 Q1019
04:00
V
9 °C 10 km+ - 210° 210° 6 kt METAR LFPN 280200Z AUTO 21006KT CAVOK 09/09 Q1020
03:30
V
9 °C 10 km+ - 210° 210° 6 kt METAR LFPN 280130Z AUTO 21006KT CAVOK 09/08 Q1020
03:00
V
9 °C 10 km+ - 360° 360° 0 kt METAR LFPN 280100Z AUTO 00000KT CAVOK 09/08 Q1020
02:30
V
9 °C 10 km+ - 210° 210° 4 kt METAR LFPN 280030Z AUTO 21004KT CAVOK 09/09 Q1020
02:00
V
9 °C 10 km+ - 220° 220° 5 kt METAR LFPN 280000Z AUTO 22005KT CAVOK 09/09 Q1020
01:30
V
9 °C 10 km+ - 210° 210° 3 kt METAR LFPN 272330Z AUTO 21003KT CAVOK 09/08 Q1020
01:00
V
8 °C 10 km+ - 200° 200° 1 kt METAR LFPN 272300Z AUTO 20001KT CAVOK 08/07 Q1020
00:30
V
9 °C 10 km+ - 360° 360° 0 kt METAR LFPN 272230Z AUTO 00000KT CAVOK 09/08 Q1020
00:00
V
9 °C 10 km+ - 330° 330° 2 kt METAR LFPN 272200Z AUTO 33002KT CAVOK 09/08 Q1020

27 mei 2024

Tijd Code Weer Temp. Zicht Plafond Wind METAR/SPECI
23:30
V
10 °C 10 km+ - 360° 360° 0 kt METAR LFPN 272130Z AUTO 00000KT CAVOK 10/08 Q1020
23:00
V
11 °C 10 km+ - 220° 220° 2 kt METAR LFPN 272100Z AUTO 22002KT CAVOK 11/08 Q1020
22:30
V
12 °C 10 km+ - 220° 220° 4 kt METAR LFPN 272030Z AUTO 22004KT CAVOK 12/08 Q1020 NOSIG
22:00
V
12 °C 10 km+ - Var Var 2 kt METAR LFPN 272000Z AUTO VRB02KT CAVOK 12/07 Q1019 NOSIG
21:30
V
13 °C 10 km+ - 250° 250° 5 kt METAR LFPN 271930Z AUTO 25005KT 9999 FEW044 13/07 Q1019 NOSIG
21:00
V
14 °C 10 km+ - 260° 260° 5 kt METAR LFPN 271900Z AUTO 26005KT CAVOK 14/08 Q1019 NOSIG
20:30
V
16 °C 10 km+ - 250° 250° 6 kt METAR LFPN 271830Z AUTO 25006KT 9999 FEW040 16/08 Q1019 NOSIG
20:00
V
16 °C 10 km+ - 250° 250° 7 kt METAR LFPN 271800Z AUTO 25007KT CAVOK 16/09 Q1019 TEMPO 4000 -SHRA BKN035TCU
19:30
V
16 °C 10 km+ - 250° 250° 9 kt METAR LFPN 271730Z AUTO 25009KT 230V290 CAVOK 16/09 Q1019 TEMPO 4000 -SHRA BKN035TCU
19:00
V
16 °C 10 km+ 6.800 ft 230° 230° 7 kt METAR LFPN 271700Z AUTO 23007KT 9999 FEW043 BKN068 OVC096 16/08 Q1018 NOSIG
18:30
V
17 °C 10 km+ 6.400 ft 260° 260° 9 kt METAR LFPN 271630Z AUTO 26009KT 230V290 9999 FEW045 BKN064 OVC094 17/09 Q1018 NOSIG
18:00
V
17 °C 10 km+ 9.400 ft 260° 260° 9 kt METAR LFPN 271600Z AUTO 26009KT 230V300 9999 FEW046/// OVC094/// //////CB 17/08 Q1018 BECMG SCT035
17:30
V
18 °C 10 km+ 9.600 ft 250° 250° 10 kt METAR LFPN 271530Z AUTO 25010KT 230V290 9999 FEW038 OVC096 18/09 Q1018 NOSIG
17:00
V
18 °C 10 km+ 10.000 ft 260° 260° 9 kt METAR LFPN 271500Z AUTO 26009KT 9999 FEW032 OVC100 18/09 Q1018 NOSIG
16:30
V
17 °C 10 km+ - 260° 260° 9 kt METAR LFPN 271430Z AUTO 26009KT CAVOK 17/10 Q1018 NOSIG
16:00
V
16 °C 10 km+ - 260° 260° 10 kt METAR LFPN 271400Z AUTO 26010KT CAVOK 16/11 Q1018 TEMPO 23015G30KT 4000 -SHRA BKN030TCU
15:30
V
14 °C 10 km+ 5.800 ft 290° 290° 9 kt METAR LFPN 271330Z AUTO 29009KT 9999 FEW032/// SCT045/// BKN058/// ///CB 14/11 Q1018 TEMPO 23015G30KT 4000 -SHRA
15:00
V
17 °C 10 km+ 4.500 ft 270° 270° 12 kt METAR LFPN 271300Z AUTO 27012KT 240V310 9999 FEW036/// BKN045/// BKN056/// //////CB 17/09 Q1018 TEMPO 23015G30KT 2000 -TSRA
14:30
V
18 °C 10 km+ 7.600 ft 220° 220° 7 kt METAR LFPN 271230Z AUTO 22007KT 200V270 9999 FEW034/// BKN076/// BKN086/// ///TCU 18/11 Q1018 TEMPO 23015G30KT 2000 -TSRA BKN025CB
14:00
V
18 °C 10 km+ - 260° 260° 5 kt METAR LFPN 271200Z AUTO 26005KT 190V310 CAVOK 18/12 Q1018 TEMPO 23015G30KT 2000 -TSRA BKN025CB
13:30
V
15 °C 10 km+ 5.600 ft 230° 230° 5 kt METAR LFPN 271130Z AUTO 23005KT 210V270 9999 -RA FEW034/// BKN056/// OVC070/// ///TCU 15/12 Q1018 TEMPO 23015G30KT 2000 -TSRA BKN025CB
13:00
V
16 °C 10 km+ 5.800 ft 230° 230° 8 kt METAR LFPN 271100Z AUTO 23008KT 9999 FEW036/// OVC058/// ///TCU 16/11 Q1019 TEMPO 4000 -SHRA
12:30
V
17 °C 10 km+ 5.200 ft 260° 260° 6 kt METAR LFPN 271030Z AUTO 26006KT 240V300 9999 SCT044/// BKN052/// BKN064/// //////TCU 17/09 Q1018 TEMPO 4000 -SHRA
12:00
V
18 °C 10 km+ 8.000 ft 220° 220° 4 kt METAR LFPN 271000Z AUTO 22004KT 150V260 9999 FEW033 OVC080 18/11 Q1018 TEMPO 4000 -SHRA BKN025TCU
11:30
V
17 °C 10 km+ 7.800 ft 240° 240° 3 kt METAR LFPN 270930Z AUTO 24003KT 170V310 9999 FEW036 OVC078 17/10 Q1018 TEMPO 4000 -SHRA BKN025TCU
11:00
V
16 °C 10 km+ 7.800 ft 300° 300° 4 kt METAR LFPN 270900Z AUTO 30004KT 250V350 9999 SCT036 OVC078 16/10 Q1018 TEMPO 4000 -SHRA BKN025TCU
10:30
V
16 °C 10 km+ 4.300 ft 290° 290° 7 kt METAR LFPN 270830Z AUTO 29007KT 260V320 9999 FEW025 SCT036 BKN043 16/10 Q1018 TEMPO 4000 -SHRA BKN025TCU
10:00
M
18 °C 10 km+ 2.400 ft 280° 280° 5 kt METAR LFPN 270800Z AUTO 28005KT 220V320 9999 BKN024 BKN035 BKN042 18/11 Q1018 TEMPO 4000 -SHRA SCT025TCU
09:30
V
16 °C 10 km+ 7.600 ft 260° 260° 3 kt METAR LFPN 270730Z AUTO 26003KT 190V320 9999 FEW041 BKN076 16/10 Q1018 TEMPO 4000 -SHRA SCT025TCU
09:00
V
17 °C 10 km+ - 280° 280° 3 kt METAR LFPN 270700Z AUTO 28003KT 240V330 9999 FEW041 17/11 Q1018 NOSIG
08:30
V
14 °C 10 km+ 7.200 ft 250° 250° 3 kt METAR LFPN 270630Z AUTO 25003KT 220V280 9999 FEW033 SCT060 BKN072 14/12 Q1018 NOSIG
08:00
V
13 °C 10 km+ 3.900 ft 250° 250° 3 kt METAR LFPN 270600Z AUTO 25003KT 9999 FEW033 BKN039 BKN054 13/12 Q1018 NOSIG
Wijziging doorgeven